Main page
METAR-TAF:

METAR-TAF

Airports :

Volgograd International Airport

Volgograd, Russia

latitude: 48-47N, longitude: 044-22E, elevation: 145 m

Current weather observation

The report was made 32 minutes ago, at 13:00 UTC
Wind 21 kt from the East
Temperature 2°C
Humidity 32%
Pressure 1032 hPa
Visibility 10 km or more
no clouds below 1500 m and no cumulonimbus

METAR: URWW 151300Z 09011MPS CAVOK 02/M13 Q1032 R06/010070 NOSIG

Time: 16:32 (13:32 UTC)

Forecast

The report was made 2 hours and 35 minutes ago, at 10:57 UTC
Forecast valid from 15 at 12 UTC to 15 at 21 UTC
Wind 17 kt from the East with gusts up to 27 kt
Visibility 10 km or more
Broken clouds at a height of 2000 ft
Temporary
from 15 at 12 UTC to 15 at 21 UTC
Wind 23 kt from the East/Southeast with gusts up to 35 kt

TAF: URWW 151057Z 1512/1521 08009G14MPS 9999 BKN020 TEMPO 1512/1521 11012G18MPS

Weather observations and forecasts of more than 4000 airports (METAR and TAF reports).

The available stations are represented by yellow and red dots on the map.

Hover mouse over dot to see the name of the station.

Then click to see weather observations and forecasts.

To change the map : click on the green buttons with a black cross to zoom in, on the green button with a dash to zoom out, or on the green arrows for adjacent maps.


METAR-TAF: